sensor_id;sensor_type;location;lat;lon;timestamp;P1;durP1;ratioP1;P2;durP2;ratioP2
22298;SDS011;11317;51.072;17.036;2022-08-02T00:00:15;4.72;;;2.70;;
22298;SDS011;11317;51.072;17.036;2022-08-02T00:02:42;3.35;;;2.90;;
22298;SDS011;11317;51.072;17.036;2022-08-02T00:05:09;3.03;;;2.50;;
22298;SDS011;11317;51.072;17.036;2022-08-02T00:07:35;5.15;;;2.60;;
22298;SDS011;11317;51.072;17.036;2022-08-02T00:10:01;4.13;;;2.75;;
22298;SDS011;11317;51.072;17.036;2022-08-02T00:12:28;3.78;;;2.60;;
22298;SDS011;11317;51.072;17.036;2022-08-02T00:14:54;4.00;;;2.65;;
22298;SDS011;11317;51.072;17.036;2022-08-02T00:17:20;2.70;;;2.50;;
22298;SDS011;11317;51.072;17.036;2022-08-02T00:19:45;3.50;;;2.38;;
22298;SDS011;11317;51.072;17.036;2022-08-02T00:22:11;2.88;;;2.50;;
22298;SDS011;11317;51.072;17.036;2022-08-02T00:24:37;4.05;;;2.95;;
22298;SDS011;11317;51.072;17.036;2022-08-02T00:27:02;5.65;;;2.70;;
22298;SDS011;11317;51.072;17.036;2022-08-02T00:29:29;3.03;;;2.35;;
22298;SDS011;11317;51.072;17.036;2022-08-02T00:31:55;3.38;;;2.60;;
22298;SDS011;11317;51.072;17.036;2022-08-02T00:34:21;2.70;;;2.50;;
22298;SDS011;11317;51.072;17.036;2022-08-02T00:36:47;2.72;;;2.40;;
22298;SDS011;11317;51.072;17.036;2022-08-02T00:39:12;2.55;;;2.35;;
22298;SDS011;11317;51.072;17.036;2022-08-02T00:41:47;3.47;;;2.75;;
22298;SDS011;11317;51.072;17.036;2022-08-02T00:44:15;3.40;;;2.38;;
22298;SDS011;11317;51.072;17.036;2022-08-02T00:46:42;2.53;;;2.10;;
22298;SDS011;11317;51.072;17.036;2022-08-02T00:49:08;2.20;;;2.00;;
22298;SDS011;11317;51.072;17.036;2022-08-02T00:51:34;2.95;;;2.65;;
22298;SDS011;11317;51.072;17.036;2022-08-02T00:54:00;2.85;;;2.40;;
22298;SDS011;11317;51.072;17.036;2022-08-02T00:56:25;3.60;;;2.50;;
22298;SDS011;11317;51.072;17.036;2022-08-02T00:58:51;2.60;;;2.40;;
22298;SDS011;11317;51.072;17.036;2022-08-02T01:01:16;2.60;;;2.40;;
22298;SDS011;11317;51.072;17.036;2022-08-02T01:03:42;2.95;;;2.47;;
22298;SDS011;11317;51.072;17.036;2022-08-02T01:06:08;3.05;;;2.60;;
22298;SDS011;11317;51.072;17.036;2022-08-02T01:08:35;2.70;;;2.45;;
22298;SDS011;11317;51.072;17.036;2022-08-02T01:11:04;3.35;;;2.50;;
22298;SDS011;11317;51.072;17.036;2022-08-02T01:13:31;2.80;;;2.47;;
22298;SDS011;11317;51.072;17.036;2022-08-02T01:15:59;3.22;;;2.83;;
22298;SDS011;11317;51.072;17.036;2022-08-02T01:18:37;3.70;;;3.00;;
22298;SDS011;11317;51.072;17.036;2022-08-02T01:29:56;5.60;;;2.97;;
22298;SDS011;11317;51.072;17.036;2022-08-02T01:32:26;3.28;;;2.95;;
22298;SDS011;11317;51.072;17.036;2022-08-02T01:35:07;3.50;;;2.80;;
22298;SDS011;11317;51.072;17.036;2022-08-02T01:37:52;3.00;;;2.70;;
22298;SDS011;11317;51.072;17.036;2022-08-02T01:40:31;3.78;;;2.80;;
22298;SDS011;11317;51.072;17.036;2022-08-02T01:43:00;4.18;;;2.70;;
22298;SDS011;11317;51.072;17.036;2022-08-02T01:45:28;5.32;;;2.70;;
22298;SDS011;11317;51.072;17.036;2022-08-02T01:47:58;4.45;;;3.10;;
22298;SDS011;11317;51.072;17.036;2022-08-02T01:50:26;4.22;;;3.15;;
22298;SDS011;11317;51.072;17.036;2022-08-02T01:52:56;5.32;;;3.10;;
22298;SDS011;11317;51.072;17.036;2022-08-02T01:55:24;3.33;;;2.83;;
22298;SDS011;11317;51.072;17.036;2022-08-02T01:57:56;3.42;;;2.80;;
22298;SDS011;11317;51.072;17.036;2022-08-02T02:00:24;3.67;;;2.97;;
22298;SDS011;11317;51.072;17.036;2022-08-02T02:02:53;3.53;;;2.55;;
22298;SDS011;11317;51.072;17.036;2022-08-02T02:05:21;3.35;;;2.60;;
22298;SDS011;11317;51.072;17.036;2022-08-02T02:07:50;3.00;;;2.58;;
22298;SDS011;11317;51.072;17.036;2022-08-02T02:10:20;2.72;;;2.53;;
22298;SDS011;11317;51.072;17.036;2022-08-02T02:12:49;5.45;;;3.10;;
22298;SDS011;11317;51.072;17.036;2022-08-02T02:15:16;3.88;;;3.10;;
22298;SDS011;11317;51.072;17.036;2022-08-02T02:17:43;3.85;;;3.13;;
22298;SDS011;11317;51.072;17.036;2022-08-02T02:20:12;6.20;;;3.55;;
22298;SDS011;11317;51.072;17.036;2022-08-02T02:22:41;4.65;;;3.33;;
22298;SDS011;11317;51.072;17.036;2022-08-02T02:25:07;4.88;;;3.45;;
22298;SDS011;11317;51.072;17.036;2022-08-02T02:27:35;4.18;;;3.60;;
22298;SDS011;11317;51.072;17.036;2022-08-02T02:30:02;6.75;;;4.47;;
22298;SDS011;11317;51.072;17.036;2022-08-02T02:32:29;8.57;;;4.95;;
22298;SDS011;11317;51.072;17.036;2022-08-02T02:34:55;9.40;;;5.13;;
22298;SDS011;11317;51.072;17.036;2022-08-02T02:37:23;5.63;;;4.82;;
22298;SDS011;11317;51.072;17.036;2022-08-02T02:39:53;6.22;;;4.88;;
22298;SDS011;11317;51.072;17.036;2022-08-02T02:42:21;9.55;;;5.13;;
22298;SDS011;11317;51.072;17.036;2022-08-02T02:44:56;6.47;;;5.35;;
22298;SDS011;11317;51.072;17.036;2022-08-02T02:47:23;8.07;;;5.30;;
22298;SDS011;11317;51.072;17.036;2022-08-02T02:49:49;8.50;;;4.63;;
22298;SDS011;11317;51.072;17.036;2022-08-02T02:52:16;4.82;;;3.88;;
22298;SDS011;11317;51.072;17.036;2022-08-02T02:54:42;5.38;;;3.58;;
22298;SDS011;11317;51.072;17.036;2022-08-02T02:57:10;5.22;;;3.65;;
22298;SDS011;11317;51.072;17.036;2022-08-02T02:59:37;4.82;;;3.70;;
22298;SDS011;11317;51.072;17.036;2022-08-02T03:02:03;4.30;;;3.90;;
22298;SDS011;11317;51.072;17.036;2022-08-02T03:04:30;4.32;;;3.25;;
22298;SDS011;11317;51.072;17.036;2022-08-02T03:06:57;3.38;;;3.08;;
22298;SDS011;11317;51.072;17.036;2022-08-02T03:09:24;3.78;;;3.17;;
22298;SDS011;11317;51.072;17.036;2022-08-02T03:11:50;4.35;;;3.17;;
22298;SDS011;11317;51.072;17.036;2022-08-02T03:14:18;6.78;;;3.28;;
22298;SDS011;11317;51.072;17.036;2022-08-02T03:16:45;4.07;;;3.25;;
22298;SDS011;11317;51.072;17.036;2022-08-02T03:19:12;5.05;;;3.95;;
22298;SDS011;11317;51.072;17.036;2022-08-02T03:21:40;4.63;;;4.05;;
22298;SDS011;11317;51.072;17.036;2022-08-02T03:24:06;4.93;;;3.92;;
22298;SDS011;11317;51.072;17.036;2022-08-02T03:26:32;7.95;;;3.83;;
22298;SDS011;11317;51.072;17.036;2022-08-02T03:28:58;5.50;;;4.03;;
22298;SDS011;11317;51.072;17.036;2022-08-02T03:31:24;5.20;;;4.03;;
22298;SDS011;11317;51.072;17.036;2022-08-02T03:33:49;7.18;;;4.28;;
22298;SDS011;11317;51.072;17.036;2022-08-02T03:36:16;4.80;;;3.88;;
22298;SDS011;11317;51.072;17.036;2022-08-02T03:38:45;8.85;;;4.65;;
22298;SDS011;11317;51.072;17.036;2022-08-02T03:41:12;8.13;;;4.45;;
22298;SDS011;11317;51.072;17.036;2022-08-02T03:43:41;10.02;;;4.45;;
22298;SDS011;11317;51.072;17.036;2022-08-02T03:46:08;6.25;;;4.80;;
22298;SDS011;11317;51.072;17.036;2022-08-02T03:48:34;6.90;;;4.53;;
22298;SDS011;11317;51.072;17.036;2022-08-02T03:51:02;9.95;;;5.05;;
22298;SDS011;11317;51.072;17.036;2022-08-02T03:53:28;6.07;;;4.53;;
22298;SDS011;11317;51.072;17.036;2022-08-02T03:55:54;8.93;;;5.07;;
22298;SDS011;11317;51.072;17.036;2022-08-02T03:58:20;7.80;;;4.70;;
22298;SDS011;11317;51.072;17.036;2022-08-02T04:00:47;6.05;;;4.57;;
22298;SDS011;11317;51.072;17.036;2022-08-02T04:03:13;6.38;;;4.50;;
22298;SDS011;11317;51.072;17.036;2022-08-02T04:05:39;6.93;;;5.07;;
22298;SDS011;11317;51.072;17.036;2022-08-02T04:08:05;6.88;;;4.97;;
22298;SDS011;11317;51.072;17.036;2022-08-02T04:10:31;5.90;;;4.50;;
22298;SDS011;11317;51.072;17.036;2022-08-02T04:13:18;7.85;;;5.28;;
22298;SDS011;11317;51.072;17.036;2022-08-02T04:15:45;7.07;;;4.97;;
22298;SDS011;11317;51.072;17.036;2022-08-02T04:18:14;6.18;;;4.95;;
22298;SDS011;11317;51.072;17.036;2022-08-02T04:20:42;6.30;;;4.82;;
22298;SDS011;11317;51.072;17.036;2022-08-02T04:23:09;7.97;;;5.38;;
22298;SDS011;11317;51.072;17.036;2022-08-02T04:25:38;6.13;;;4.97;;
22298;SDS011;11317;51.072;17.036;2022-08-02T04:28:05;6.82;;;5.03;;
22298;SDS011;11317;51.072;17.036;2022-08-02T04:30:31;6.80;;;5.13;;
22298;SDS011;11317;51.072;17.036;2022-08-02T04:32:57;7.82;;;5.20;;
22298;SDS011;11317;51.072;17.036;2022-08-02T04:35:23;7.03;;;5.28;;
22298;SDS011;11317;51.072;17.036;2022-08-02T04:37:49;5.72;;;5.13;;
22298;SDS011;11317;51.072;17.036;2022-08-02T04:40:16;7.47;;;5.10;;
22298;SDS011;11317;51.072;17.036;2022-08-02T04:42:42;7.43;;;5.05;;
22298;SDS011;11317;51.072;17.036;2022-08-02T04:45:08;7.10;;;5.20;;
22298;SDS011;11317;51.072;17.036;2022-08-02T04:47:34;8.15;;;5.18;;
22298;SDS011;11317;51.072;17.036;2022-08-02T04:50:00;7.35;;;4.75;;
22298;SDS011;11317;51.072;17.036;2022-08-02T04:52:26;7.45;;;5.35;;
22298;SDS011;11317;51.072;17.036;2022-08-02T04:54:52;6.68;;;4.55;;
22298;SDS011;11317;51.072;17.036;2022-08-02T04:57:18;7.45;;;4.82;;
22298;SDS011;11317;51.072;17.036;2022-08-02T05:00:03;5.97;;;4.80;;
22298;SDS011;11317;51.072;17.036;2022-08-02T05:02:31;5.72;;;4.65;;
22298;SDS011;11317;51.072;17.036;2022-08-02T05:04:57;8.77;;;4.90;;
22298;SDS011;11317;51.072;17.036;2022-08-02T05:07:22;5.47;;;4.90;;
22298;SDS011;11317;51.072;17.036;2022-08-02T05:09:48;8.75;;;5.18;;
22298;SDS011;11317;51.072;17.036;2022-08-02T05:12:14;6.00;;;5.07;;
22298;SDS011;11317;51.072;17.036;2022-08-02T05:14:39;7.82;;;4.85;;
22298;SDS011;11317;51.072;17.036;2022-08-02T05:17:05;7.30;;;5.30;;
22298;SDS011;11317;51.072;17.036;2022-08-02T05:19:31;8.43;;;5.32;;
22298;SDS011;11317;51.072;17.036;2022-08-02T05:21:56;5.82;;;4.80;;
22298;SDS011;11317;51.072;17.036;2022-08-02T05:24:22;7.50;;;4.68;;
22298;SDS011;11317;51.072;17.036;2022-08-02T05:26:48;6.03;;;4.85;;
22298;SDS011;11317;51.072;17.036;2022-08-02T05:29:14;5.07;;;4.35;;
22298;SDS011;11317;51.072;17.036;2022-08-02T05:31:40;6.45;;;4.50;;
22298;SDS011;11317;51.072;17.036;2022-08-02T05:34:06;5.75;;;4.70;;
22298;SDS011;11317;51.072;17.036;2022-08-02T05:36:31;5.15;;;4.10;;
22298;SDS011;11317;51.072;17.036;2022-08-02T05:38:57;8.27;;;4.63;;
22298;SDS011;11317;51.072;17.036;2022-08-02T05:41:22;5.32;;;4.45;;
22298;SDS011;11317;51.072;17.036;2022-08-02T05:43:48;5.90;;;4.72;;
22298;SDS011;11317;51.072;17.036;2022-08-02T05:46:14;9.95;;;5.07;;
22298;SDS011;11317;51.072;17.036;2022-08-02T05:48:39;7.72;;;4.07;;
22298;SDS011;11317;51.072;17.036;2022-08-02T05:51:06;5.65;;;4.50;;
22298;SDS011;11317;51.072;17.036;2022-08-02T05:53:49;5.78;;;4.82;;
22298;SDS011;11317;51.072;17.036;2022-08-02T05:56:30;6.25;;;4.25;;
22298;SDS011;11317;51.072;17.036;2022-08-02T05:59:04;6.78;;;4.30;;
22298;SDS011;11317;51.072;17.036;2022-08-02T06:01:38;6.82;;;4.70;;
22298;SDS011;11317;51.072;17.036;2022-08-02T06:04:07;6.07;;;4.57;;
22298;SDS011;11317;51.072;17.036;2022-08-02T06:06:35;7.60;;;4.90;;
22298;SDS011;11317;51.072;17.036;2022-08-02T06:09:03;4.65;;;4.15;;
22298;SDS011;11317;51.072;17.036;2022-08-02T06:11:35;5.10;;;4.00;;
22298;SDS011;11317;51.072;17.036;2022-08-02T06:14:04;5.65;;;3.83;;
22298;SDS011;11317;51.072;17.036;2022-08-02T06:16:31;6.07;;;4.22;;
22298;SDS011;11317;51.072;17.036;2022-08-02T06:18:57;7.07;;;4.03;;
22298;SDS011;11317;51.072;17.036;2022-08-02T06:21:24;4.18;;;3.30;;
22298;SDS011;11317;51.072;17.036;2022-08-02T06:23:51;5.22;;;3.70;;
22298;SDS011;11317;51.072;17.036;2022-08-02T06:26:16;4.43;;;3.60;;
22298;SDS011;11317;51.072;17.036;2022-08-02T06:28:43;4.68;;;3.90;;
22298;SDS011;11317;51.072;17.036;2022-08-02T06:31:09;4.40;;;4.00;;
22298;SDS011;11317;51.072;17.036;2022-08-02T06:33:38;4.60;;;3.38;;
22298;SDS011;11317;51.072;17.036;2022-08-02T06:36:09;5.15;;;3.53;;
22298;SDS011;11317;51.072;17.036;2022-08-02T06:38:55;3.13;;;2.88;;
22298;SDS011;11317;51.072;17.036;2022-08-02T06:41:27;3.97;;;3.53;;
22298;SDS011;11317;51.072;17.036;2022-08-02T06:44:02;5.38;;;3.20;;
22298;SDS011;11317;51.072;17.036;2022-08-02T06:46:28;3.92;;;3.28;;
22298;SDS011;11317;51.072;17.036;2022-08-02T06:48:55;3.47;;;3.15;;
22298;SDS011;11317;51.072;17.036;2022-08-02T06:51:21;5.40;;;3.88;;
22298;SDS011;11317;51.072;17.036;2022-08-02T06:53:47;3.80;;;2.85;;
22298;SDS011;11317;51.072;17.036;2022-08-02T06:56:13;3.65;;;3.22;;
22298;SDS011;11317;51.072;17.036;2022-08-02T06:58:39;5.47;;;3.05;;
22298;SDS011;11317;51.072;17.036;2022-08-02T07:01:05;6.07;;;3.38;;
22298;SDS011;11317;51.072;17.036;2022-08-02T07:03:34;3.88;;;3.47;;
22298;SDS011;11317;51.072;17.036;2022-08-02T07:06:02;3.75;;;3.38;;
22298;SDS011;11317;51.072;17.036;2022-08-02T07:08:28;3.70;;;3.30;;
22298;SDS011;11317;51.072;17.036;2022-08-02T07:11:00;3.33;;;2.90;;
22298;SDS011;11317;51.072;17.036;2022-08-02T07:13:27;3.53;;;3.22;;
22298;SDS011;11317;51.072;17.036;2022-08-02T07:15:53;2.90;;;2.70;;
22298;SDS011;11317;51.072;17.036;2022-08-02T07:18:20;2.97;;;2.72;;
22298;SDS011;11317;51.072;17.036;2022-08-02T07:20:46;3.97;;;2.55;;
22298;SDS011;11317;51.072;17.036;2022-08-02T07:23:12;3.50;;;3.20;;
22298;SDS011;11317;51.072;17.036;2022-08-02T07:25:38;4.57;;;2.53;;
22298;SDS011;11317;51.072;17.036;2022-08-02T07:28:04;3.05;;;2.78;;
22298;SDS011;11317;51.072;17.036;2022-08-02T07:30:30;3.92;;;2.35;;
22298;SDS011;11317;51.072;17.036;2022-08-02T07:32:57;3.95;;;2.50;;
22298;SDS011;11317;51.072;17.036;2022-08-02T07:35:24;2.58;;;2.38;;
22298;SDS011;11317;51.072;17.036;2022-08-02T07:37:50;2.65;;;2.20;;
22298;SDS011;11317;51.072;17.036;2022-08-02T07:40:15;2.42;;;2.13;;
22298;SDS011;11317;51.072;17.036;2022-08-02T07:42:42;2.10;;;2.00;;
22298;SDS011;11317;51.072;17.036;2022-08-02T07:45:08;3.58;;;1.92;;
22298;SDS011;11317;51.072;17.036;2022-08-02T07:47:41;2.35;;;2.03;;
22298;SDS011;11317;51.072;17.036;2022-08-02T07:50:08;1.95;;;1.80;;
22298;SDS011;11317;51.072;17.036;2022-08-02T07:52:35;1.70;;;1.60;;
22298;SDS011;11317;51.072;17.036;2022-08-02T07:55:01;2.20;;;1.60;;
22298;SDS011;11317;51.072;17.036;2022-08-02T07:57:27;2.75;;;1.88;;
22298;SDS011;11317;51.072;17.036;2022-08-02T07:59:53;2.05;;;1.90;;
22298;SDS011;11317;51.072;17.036;2022-08-02T08:02:19;4.55;;;2.40;;
22298;SDS011;11317;51.072;17.036;2022-08-02T08:04:44;1.83;;;1.70;;
22298;SDS011;11317;51.072;17.036;2022-08-02T08:07:10;2.40;;;1.63;;
22298;SDS011;11317;51.072;17.036;2022-08-02T08:09:38;2.30;;;1.67;;
22298;SDS011;11317;51.072;17.036;2022-08-02T08:12:06;5.18;;;1.83;;
22298;SDS011;11317;51.072;17.036;2022-08-02T08:14:32;2.47;;;2.28;;
22298;SDS011;11317;51.072;17.036;2022-08-02T08:16:57;2.47;;;2.10;;
22298;SDS011;11317;51.072;17.036;2022-08-02T08:19:23;2.40;;;1.60;;
22298;SDS011;11317;51.072;17.036;2022-08-02T08:21:50;6.05;;;2.60;;
22298;SDS011;11317;51.072;17.036;2022-08-02T08:24:15;8.32;;;2.50;;
22298;SDS011;11317;51.072;17.036;2022-08-02T08:26:41;3.22;;;1.90;;
22298;SDS011;11317;51.072;17.036;2022-08-02T08:29:07;3.83;;;1.65;;
22298;SDS011;11317;51.072;17.036;2022-08-02T08:31:32;2.30;;;1.67;;
22298;SDS011;11317;51.072;17.036;2022-08-02T08:33:58;3.03;;;1.88;;
22298;SDS011;11317;51.072;17.036;2022-08-02T08:36:25;1.83;;;1.50;;
22298;SDS011;11317;51.072;17.036;2022-08-02T08:38:51;13.90;;;2.65;;
22298;SDS011;11317;51.072;17.036;2022-08-02T08:41:17;1.63;;;1.52;;
22298;SDS011;11317;51.072;17.036;2022-08-02T08:43:43;2.80;;;1.48;;
22298;SDS011;11317;51.072;17.036;2022-08-02T08:46:09;1.60;;;1.40;;
22298;SDS011;11317;51.072;17.036;2022-08-02T08:48:41;1.75;;;1.60;;
22298;SDS011;11317;51.072;17.036;2022-08-02T08:51:10;1.77;;;1.60;;
22298;SDS011;11317;51.072;17.036;2022-08-02T08:53:43;1.75;;;1.52;;
22298;SDS011;11317;51.072;17.036;2022-08-02T08:56:12;2.40;;;1.70;;
22298;SDS011;11317;51.072;17.036;2022-08-02T08:58:40;5.32;;;1.63;;
22298;SDS011;11317;51.072;17.036;2022-08-02T09:01:07;1.63;;;1.30;;
22298;SDS011;11317;51.072;17.036;2022-08-02T09:03:33;2.28;;;1.38;;
22298;SDS011;11317;51.072;17.036;2022-08-02T09:05:59;6.22;;;2.90;;
22298;SDS011;11317;51.072;17.036;2022-08-02T09:08:25;3.30;;;1.80;;
22298;SDS011;11317;51.072;17.036;2022-08-02T09:10:51;3.10;;;1.60;;
22298;SDS011;11317;51.072;17.036;2022-08-02T09:13:22;2.33;;;1.60;;
22298;SDS011;11317;51.072;17.036;2022-08-02T09:15:59;2.03;;;1.17;;
22298;SDS011;11317;51.072;17.036;2022-08-02T09:18:34;2.05;;;1.17;;
22298;SDS011;11317;51.072;17.036;2022-08-02T09:21:05;1.40;;;1.30;;
22298;SDS011;11317;51.072;17.036;2022-08-02T09:28:35;1.75;;;1.40;;
22298;SDS011;11317;51.072;17.036;2022-08-02T09:31:06;2.05;;;1.50;;
22298;SDS011;11317;51.072;17.036;2022-08-02T09:33:33;3.50;;;2.33;;
22298;SDS011;11317;51.072;17.036;2022-08-02T09:41:23;1.20;;;1.10;;
22298;SDS011;11317;51.072;17.036;2022-08-02T09:43:52;1.92;;;1.25;;
22298;SDS011;11317;51.072;17.036;2022-08-02T09:46:23;1.45;;;1.10;;
22298;SDS011;11317;51.072;17.036;2022-08-02T09:48:57;0.85;;;0.85;;
22298;SDS011;11317;51.072;17.036;2022-08-02T09:51:32;0.93;;;0.93;;
22298;SDS011;11317;51.072;17.036;2022-08-02T09:54:17;0.80;;;0.80;;
22298;SDS011;11317;51.072;17.036;2022-08-02T09:56:49;1.52;;;0.90;;
22298;SDS011;11317;51.072;17.036;2022-08-02T09:59:20;1.35;;;1.00;;
22298;SDS011;11317;51.072;17.036;2022-08-02T10:01:49;3.85;;;1.80;;
22298;SDS011;11317;51.072;17.036;2022-08-02T10:04:17;2.05;;;1.27;;
22298;SDS011;11317;51.072;17.036;2022-08-02T10:06:45;2.45;;;1.20;;
22298;SDS011;11317;51.072;17.036;2022-08-02T10:09:11;1.08;;;1.02;;
22298;SDS011;11317;51.072;17.036;2022-08-02T10:11:37;1.80;;;1.02;;
22298;SDS011;11317;51.072;17.036;2022-08-02T10:14:04;2.55;;;1.20;;
22298;SDS011;11317;51.072;17.036;2022-08-02T10:16:32;2.00;;;1.20;;
22298;SDS011;11317;51.072;17.036;2022-08-02T10:19:10;1.52;;;1.00;;
22298;SDS011;11317;51.072;17.036;2022-08-02T10:24:06;0.85;;;0.85;;
22298;SDS011;11317;51.072;17.036;2022-08-02T10:26:40;1.20;;;1.10;;
22298;SDS011;11317;51.072;17.036;2022-08-02T10:29:09;1.70;;;1.00;;
22298;SDS011;11317;51.072;17.036;2022-08-02T10:31:36;1.75;;;1.05;;
22298;SDS011;11317;51.072;17.036;2022-08-02T10:34:11;3.25;;;1.00;;
22298;SDS011;11317;51.072;17.036;2022-08-02T10:36:40;1.20;;;1.10;;
22298;SDS011;11317;51.072;17.036;2022-08-02T10:39:06;0.80;;;0.80;;
22298;SDS011;11317;51.072;17.036;2022-08-02T10:41:40;2.03;;;1.20;;
22298;SDS011;11317;51.072;17.036;2022-08-02T10:44:26;1.92;;;1.25;;
22298;SDS011;11317;51.072;17.036;2022-08-02T10:47:17;1.98;;;1.00;;
22298;SDS011;11317;51.072;17.036;2022-08-02T10:49:53;1.25;;;1.10;;
22298;SDS011;11317;51.072;17.036;2022-08-02T10:57:23;1.60;;;1.02;;
22298;SDS011;11317;51.072;17.036;2022-08-02T10:59:51;1.15;;;1.05;;
22298;SDS011;11317;51.072;17.036;2022-08-02T11:05:04;1.13;;;1.02;;
22298;SDS011;11317;51.072;17.036;2022-08-02T11:07:49;1.15;;;1.05;;
22298;SDS011;11317;51.072;17.036;2022-08-02T11:13:03;1.23;;;1.13;;
22298;SDS011;11317;51.072;17.036;2022-08-02T11:15:28;1.00;;;0.90;;
22298;SDS011;11317;51.072;17.036;2022-08-02T11:17:56;2.88;;;1.17;;
22298;SDS011;11317;51.072;17.036;2022-08-02T11:20:25;1.15;;;1.10;;
22298;SDS011;11317;51.072;17.036;2022-08-02T11:22:52;1.63;;;1.00;;
22298;SDS011;11317;51.072;17.036;2022-08-02T11:30:13;1.40;;;1.30;;
22298;SDS011;11317;51.072;17.036;2022-08-02T11:32:40;3.22;;;1.23;;
22298;SDS011;11317;51.072;17.036;2022-08-02T11:35:06;3.00;;;1.35;;
22298;SDS011;11317;51.072;17.036;2022-08-02T11:37:33;1.45;;;1.27;;
22298;SDS011;11317;51.072;17.036;2022-08-02T11:40:04;2.53;;;1.50;;
22298;SDS011;11317;51.072;17.036;2022-08-02T11:42:36;2.63;;;1.25;;
22298;SDS011;11317;51.072;17.036;2022-08-02T11:45:03;1.30;;;1.13;;
22298;SDS011;11317;51.072;17.036;2022-08-02T11:47:31;1.70;;;1.15;;
22298;SDS011;11317;51.072;17.036;2022-08-02T11:50:04;3.50;;;1.20;;
22298;SDS011;11317;51.072;17.036;2022-08-02T11:52:33;2.97;;;1.20;;
22298;SDS011;11317;51.072;17.036;2022-08-02T11:55:00;1.98;;;1.10;;
22298;SDS011;11317;51.072;17.036;2022-08-02T11:57:26;1.77;;;1.25;;
22298;SDS011;11317;51.072;17.036;2022-08-02T11:59:53;1.20;;;1.10;;
22298;SDS011;11317;51.072;17.036;2022-08-02T12:02:20;2.30;;;0.98;;
22298;SDS011;11317;51.072;17.036;2022-08-02T12:04:54;1.52;;;1.42;;
22298;SDS011;11317;51.072;17.036;2022-08-02T12:07:43;1.30;;;1.20;;
22298;SDS011;11317;51.072;17.036;2022-08-02T12:10:10;1.17;;;1.08;;
22298;SDS011;11317;51.072;17.036;2022-08-02T12:12:47;1.00;;;1.00;;
22298;SDS011;11317;51.072;17.036;2022-08-02T12:15:13;2.08;;;1.30;;
22298;SDS011;11317;51.072;17.036;2022-08-02T12:17:39;6.18;;;2.20;;
22298;SDS011;11317;51.072;17.036;2022-08-02T12:20:33;2.08;;;1.58;;
22298;SDS011;11317;51.072;17.036;2022-08-02T12:23:01;1.45;;;1.17;;
22298;SDS011;11317;51.072;17.036;2022-08-02T12:25:27;1.63;;;1.20;;
22298;SDS011;11317;51.072;17.036;2022-08-02T12:28:15;2.53;;;1.38;;
22298;SDS011;11317;51.072;17.036;2022-08-02T12:30:53;2.08;;;1.35;;
22298;SDS011;11317;51.072;17.036;2022-08-02T12:33:21;1.65;;;1.33;;
22298;SDS011;11317;51.072;17.036;2022-08-02T12:35:48;1.85;;;1.15;;
22298;SDS011;11317;51.072;17.036;2022-08-02T12:38:14;1.20;;;1.10;;
22298;SDS011;11317;51.072;17.036;2022-08-02T12:40:40;1.30;;;1.20;;
22298;SDS011;11317;51.072;17.036;2022-08-02T12:43:07;1.25;;;1.15;;
22298;SDS011;11317;51.072;17.036;2022-08-02T12:45:50;1.50;;;1.40;;
22298;SDS011;11317;51.072;17.036;2022-08-02T12:51:17;1.13;;;1.02;;
22298;SDS011;11317;51.072;17.036;2022-08-02T12:53:43;0.95;;;0.93;;
22298;SDS011;11317;51.072;17.036;2022-08-02T12:56:09;1.63;;;1.30;;
22298;SDS011;11317;51.072;17.036;2022-08-02T12:58:47;2.80;;;1.08;;
22298;SDS011;11317;51.072;17.036;2022-08-02T13:01:19;1.45;;;1.10;;
22298;SDS011;11317;51.072;17.036;2022-08-02T13:03:49;1.30;;;1.20;;
22298;SDS011;11317;51.072;17.036;2022-08-02T13:06:16;1.58;;;1.20;;
22298;SDS011;11317;51.072;17.036;2022-08-02T13:08:43;2.38;;;1.27;;
22298;SDS011;11317;51.072;17.036;2022-08-02T13:11:08;1.77;;;1.30;;
22298;SDS011;11317;51.072;17.036;2022-08-02T13:13:34;3.50;;;1.30;;
22298;SDS011;11317;51.072;17.036;2022-08-02T13:16:00;1.90;;;1.10;;
22298;SDS011;11317;51.072;17.036;2022-08-02T13:18:26;1.35;;;1.25;;
22298;SDS011;11317;51.072;17.036;2022-08-02T13:20:52;1.67;;;1.10;;
22298;SDS011;11317;51.072;17.036;2022-08-02T13:23:18;1.35;;;1.00;;
22298;SDS011;11317;51.072;17.036;2022-08-02T13:25:44;1.40;;;1.10;;
22298;SDS011;11317;51.072;17.036;2022-08-02T13:28:10;1.20;;;1.00;;
22298;SDS011;11317;51.072;17.036;2022-08-02T13:30:36;1.25;;;1.15;;
22298;SDS011;11317;51.072;17.036;2022-08-02T13:33:02;1.58;;;1.30;;
22298;SDS011;11317;51.072;17.036;2022-08-02T13:35:28;1.60;;;1.00;;
22298;SDS011;11317;51.072;17.036;2022-08-02T13:37:54;1.17;;;1.02;;
22298;SDS011;11317;51.072;17.036;2022-08-02T13:40:20;2.20;;;1.20;;
22298;SDS011;11317;51.072;17.036;2022-08-02T13:42:46;1.33;;;1.10;;
22298;SDS011;11317;51.072;17.036;2022-08-02T13:45:12;1.50;;;1.13;;
22298;SDS011;11317;51.072;17.036;2022-08-02T13:47:39;1.80;;;1.13;;
22298;SDS011;11317;51.072;17.036;2022-08-02T13:50:05;1.17;;;1.00;;
22298;SDS011;11317;51.072;17.036;2022-08-02T13:52:31;3.72;;;1.50;;
22298;SDS011;11317;51.072;17.036;2022-08-02T13:54:57;1.52;;;1.10;;
22298;SDS011;11317;51.072;17.036;2022-08-02T13:57:23;1.20;;;1.10;;
22298;SDS011;11317;51.072;17.036;2022-08-02T13:59:49;1.40;;;1.23;;
22298;SDS011;11317;51.072;17.036;2022-08-02T14:02:16;1.90;;;1.33;;
22298;SDS011;11317;51.072;17.036;2022-08-02T14:04:42;1.30;;;1.20;;
22298;SDS011;11317;51.072;17.036;2022-08-02T14:07:08;1.48;;;1.30;;
22298;SDS011;11317;51.072;17.036;2022-08-02T14:09:34;1.60;;;1.50;;
22298;SDS011;11317;51.072;17.036;2022-08-02T14:12:06;1.88;;;1.20;;
22298;SDS011;11317;51.072;17.036;2022-08-02T14:16:59;2.13;;;1.58;;
22298;SDS011;11317;51.072;17.036;2022-08-02T14:19:24;1.80;;;1.63;;
22298;SDS011;11317;51.072;17.036;2022-08-02T14:21:50;4.88;;;2.70;;
22298;SDS011;11317;51.072;17.036;2022-08-02T14:24:17;2.78;;;1.52;;
22298;SDS011;11317;51.072;17.036;2022-08-02T14:26:45;1.52;;;1.27;;
22298;SDS011;11317;51.072;17.036;2022-08-02T14:29:12;4.25;;;2.25;;
22298;SDS011;11317;51.072;17.036;2022-08-02T14:31:38;1.90;;;1.30;;
22298;SDS011;11317;51.072;17.036;2022-08-02T14:34:04;3.70;;;2.15;;
22298;SDS011;11317;51.072;17.036;2022-08-02T14:36:29;1.55;;;1.45;;
22298;SDS011;11317;51.072;17.036;2022-08-02T14:38:55;2.08;;;1.42;;
22298;SDS011;11317;51.072;17.036;2022-08-02T14:41:22;2.97;;;1.48;;
22298;SDS011;11317;51.072;17.036;2022-08-02T14:43:48;1.40;;;1.30;;
22298;SDS011;11317;51.072;17.036;2022-08-02T14:46:29;1.90;;;1.38;;
22298;SDS011;11317;51.072;17.036;2022-08-02T14:48:57;1.88;;;1.40;;
22298;SDS011;11317;51.072;17.036;2022-08-02T14:51:26;1.55;;;1.40;;
22298;SDS011;11317;51.072;17.036;2022-08-02T14:53:53;1.67;;;1.40;;
22298;SDS011;11317;51.072;17.036;2022-08-02T14:56:18;1.83;;;1.50;;
22298;SDS011;11317;51.072;17.036;2022-08-02T14:58:44;2.40;;;1.42;;
22298;SDS011;11317;51.072;17.036;2022-08-02T15:01:10;2.20;;;1.20;;
22298;SDS011;11317;51.072;17.036;2022-08-02T15:03:36;1.88;;;1.58;;
22298;SDS011;11317;51.072;17.036;2022-08-02T15:06:02;1.92;;;1.73;;
22298;SDS011;11317;51.072;17.036;2022-08-02T15:08:28;1.50;;;1.40;;
22298;SDS011;11317;51.072;17.036;2022-08-02T15:10:54;1.50;;;1.40;;
22298;SDS011;11317;51.072;17.036;2022-08-02T15:13:20;1.95;;;1.75;;
22298;SDS011;11317;51.072;17.036;2022-08-02T15:15:46;2.35;;;1.70;;
22298;SDS011;11317;51.072;17.036;2022-08-02T15:18:12;1.73;;;1.50;;
22298;SDS011;11317;51.072;17.036;2022-08-02T15:20:38;1.15;;;1.15;;